Time;durP1;ratioP1;P1;durP2;ratioP2;P2;SDS_P1;SDS_P2;PMS_P1;PMS_P2;Temp;Humidity;BMP_temperature;BMP_pressure;BME280_temperature;BME280_humidity;BME280_pressure;Samples;Min_cycle;Max_cycle;Signal;HPM_P1;HPM_P2
2023/02/10 00:02:22;;;;;;;29.67;17.60;;;6.10;99.90;;;6.42;83.65;103412.78;5075588;28;20036;-70
2023/02/10 00:04:52;;;;;;;27.70;16.33;;;6.10;99.90;;;6.40;83.95;103409.16;5093641;28;20086;-70
2023/02/10 00:07:21;;;;;;;30.77;17.43;;;6.10;99.90;;;6.37;83.92;103402.00;5093603;28;20047;-70
2023/02/10 00:09:49;;;;;;;29.05;17.27;;;6.10;99.90;;;6.27;83.74;103404.06;5093282;28;20290;-70
2023/02/10 00:12:18;;;;;;;28.55;18.02;;;6.20;99.90;;;6.25;83.59;103405.72;5093264;28;20106;-70
2023/02/10 00:14:46;;;;;;;28.58;18.50;;;6.10;99.90;;;6.17;83.27;103405.31;5093213;28;20127;-70
2023/02/10 00:17:17;;;;;;;29.33;17.50;;;6.00;99.90;;;6.19;83.42;103401.00;5075331;28;20051;-70
2023/02/10 00:19:45;;;;;;;28.60;17.40;;;6.00;99.90;;;6.21;83.28;103398.50;5093251;28;20090;-70
2023/02/10 00:22:15;;;;;;;31.33;19.17;;;6.00;99.90;;;6.18;83.50;103399.22;5075297;28;20474;-69
2023/02/10 00:24:43;;;;;;;29.17;18.40;;;5.90;99.90;;;6.21;83.64;103385.34;5075400;28;20044;-69
2023/02/10 00:27:12;;;;;;;34.33;20.17;;;5.90;99.90;;;6.18;83.83;103395.66;5093178;28;20055;-70
2023/02/10 00:29:40;;;;;;;36.08;19.80;;;5.90;99.90;;;6.11;84.08;103381.31;5075247;28;20080;-69
2023/02/10 00:32:10;;;;;;;34.42;19.58;;;5.90;99.90;;;6.20;83.93;103384.44;5093363;28;20070;-70
2023/02/10 00:34:40;;;;;;;32.88;21.15;;;5.90;99.90;;;6.23;83.79;103383.69;5093318;28;20127;-70
2023/02/10 00:37:09;;;;;;;33.40;21.23;;;6.00;99.90;;;6.24;83.74;103389.03;5093276;28;20070;-69
2023/02/10 00:39:39;;;;;;;33.33;21.10;;;6.00;99.90;;;6.28;83.34;103372.59;5092956;28;20040;-69
2023/02/10 00:42:07;;;;;;;36.72;21.55;;;6.10;99.90;;;6.32;83.55;103382.47;5093136;28;20079;-69
2023/02/10 00:44:36;;;;;;;39.08;22.80;;;6.10;99.90;;;6.34;83.54;103379.91;5075042;28;20048;-70
2023/02/10 00:47:04;;;;;;;29.40;20.48;;;6.10;99.90;;;6.24;83.42;103382.88;5096532;28;20042;-70
2023/02/10 00:49:33;;;;;;;26.58;18.90;;;6.10;99.90;;;6.20;82.93;103383.53;5079091;28;20450;-70
2023/02/10 00:52:02;;;;;;;33.42;21.85;;;6.00;99.90;;;6.28;82.63;103380.50;5079224;28;20051;-69
2023/02/10 00:54:31;;;;;;;40.50;22.92;;;6.10;99.90;;;6.31;82.38;103380.66;5078936;28;20098;-70
2023/02/10 00:57:01;;;;;;;32.20;22.17;;;6.10;99.90;;;6.33;82.57;103393.84;5097379;28;20040;-69
2023/02/10 00:59:30;;;;;;;39.95;24.30;;;6.10;99.90;;;6.32;83.26;103376.28;5078886;28;20048;-69
2023/02/10 01:01:58;;;;;;;35.78;23.73;;;6.10;99.90;;;6.34;83.60;103404.47;5096947;28;20123;-69
2023/02/10 01:04:27;;;;;;;38.13;25.05;;;6.10;99.90;;;6.32;83.78;103387.72;5096944;28;20408;-69
2023/02/10 01:06:55;;;;;;;39.88;25.55;;;6.10;99.90;;;6.37;83.86;103387.94;5078795;28;20036;-70
2023/02/10 01:09:24;;;;;;;42.70;26.10;;;6.20;99.90;;;6.35;83.83;103392.22;5097189;28;20048;-69
2023/02/10 01:11:52;;;;;;;42.15;25.55;;;6.10;99.90;;;6.33;83.89;103394.78;5096544;28;20452;-69
2023/02/10 01:14:22;;;;;;;40.45;25.77;;;6.10;99.90;;;6.28;83.43;103395.34;5096779;28;20038;-70
2023/02/10 01:16:51;;;;;;;39.13;25.67;;;6.10;99.90;;;6.25;83.20;103395.22;5096764;28;20039;-70
2023/02/10 01:19:19;;;;;;;41.65;25.85;;;6.00;99.90;;;6.22;82.95;103395.03;5096745;28;20050;-69
2023/02/10 01:21:48;;;;;;;39.88;25.85;;;6.00;99.90;;;5.69;83.29;103289.66;5097204;28;20039;-70
2023/02/10 01:24:17;;;;;;;40.08;25.30;;;6.10;99.90;;;6.32;83.26;103398.25;5097062;28;20047;-70
2023/02/10 01:26:45;;;;;;;41.90;25.42;;;6.10;99.90;;;6.31;83.52;103408.63;5078786;28;20094;-70
2023/02/10 01:29:14;;;;;;;38.55;25.17;;;6.10;99.90;;;6.33;83.68;103399.13;5074755;28;20080;-70
2023/02/10 01:31:44;;;;;;;40.97;24.65;;;6.10;99.90;;;6.32;84.18;103403.50;5076267;28;20045;-69
2023/02/10 01:34:13;;;;;;;40.40;27.05;;;6.00;99.90;;;6.35;84.25;103390.50;5076572;28;20063;-70
2023/02/10 01:36:42;;;;;;;43.65;26.98;;;6.10;99.90;;;6.24;84.47;103388.13;5076199;28;20041;-70
2023/02/10 01:39:10;;;;;;;44.35;27.67;;;6.10;99.90;;;6.32;84.06;103403.50;5076085;28;20102;-69
2023/02/10 01:41:38;;;;;;;46.00;27.33;;;6.10;99.90;;;6.29;84.13;103411.19;5075932;28;20037;-70
2023/02/10 01:44:42;;;;;;;39.38;26.92;;;6.10;99.90;;;6.22;83.90;103410.78;5074731;28;20050;-70
2023/02/10 01:47:12;;;;;;;41.63;26.85;;;6.10;99.90;;;6.23;83.92;103425.75;5074555;28;20144;-70
2023/02/10 01:49:45;;;;;;;37.20;25.42;;;6.00;99.90;;;6.17;83.76;103420.16;5074714;28;20068;-70
2023/02/10 01:52:18;;;;;;;43.28;25.17;;;6.00;99.90;;;6.21;83.63;103423.00;5075909;28;20059;-70
2023/02/10 01:54:52;;;;;;;43.00;26.02;;;6.00;99.90;;;6.13;83.56;103421.72;5074810;28;20422;-70
2023/02/10 01:57:23;;;;;;;43.55;25.05;;;6.00;99.90;;;6.14;83.36;103428.78;5075204;28;20036;-71
2023/02/10 01:59:52;;;;;;;38.10;25.08;;;6.00;99.90;;;6.17;83.11;103430.66;5075553;28;20535;-69
2023/02/10 02:02:22;;;;;;;33.85;23.65;;;6.00;99.90;;;6.17;83.48;103421.06;5075317;28;20039;-70
2023/02/10 02:04:58;;;;;;;44.63;24.50;;;6.00;99.90;;;6.16;83.46;103408.75;5075679;28;20546;-69
2023/02/10 02:07:33;;;;;;;41.55;25.15;;;6.00;99.90;;;6.16;83.54;103416.63;5074049;28;20098;-69
2023/02/10 02:10:04;;;;;;;38.17;24.23;;;6.00;99.90;;;6.15;83.76;103420.09;5074247;28;20087;-70
2023/02/10 02:12:44;;;;;;;38.50;23.85;;;6.00;99.90;;;6.16;83.74;103416.63;5075532;28;20048;-70
2023/02/10 02:15:21;;;;;;;37.13;22.83;;;6.00;99.90;;;6.14;83.54;103409.47;5075493;28;20550;-70
2023/02/10 02:17:58;;;;;;;36.53;23.17;;;6.00;99.90;;;6.19;83.46;103411.50;5074114;28;20045;-69
2023/02/10 02:21:01;;;;;;;38.08;22.35;;;6.00;99.90;;;6.19;83.73;103406.25;5074172;28;20053;-70
2023/02/10 02:23:57;;;;;;;44.85;24.85;;;6.00;99.90;;;6.17;83.45;103404.41;5075033;28;20494;-70
2023/02/10 02:26:46;;;;;;;32.83;22.17;;;6.00;99.90;;;6.15;83.63;103406.03;5073986;28;20424;-70
2023/02/10 02:30:00;;;;;;;35.10;22.88;;;6.00;99.90;;;6.11;83.21;103404.06;5073608;28;20056;-70
2023/02/10 02:32:34;;;;;;;42.70;22.77;;;5.90;99.90;;;6.12;83.22;103409.38;5073971;28;20505;-69
2023/02/10 02:35:08;;;;;;;35.97;23.13;;;5.90;99.90;;;6.01;83.29;103397.41;5075097;28;20044;-70
2023/02/10 02:37:39;;;;;;;33.85;22.60;;;5.90;99.90;;;5.91;83.08;103388.91;5074760;28;20083;-69
2023/02/10 02:40:09;;;;;;;33.83;22.02;;;5.90;99.90;;;6.05;83.58;103411.59;5073751;28;20051;-69
2023/02/10 02:42:37;;;;;;;39.47;23.52;;;5.90;99.90;;;6.08;83.67;103427.53;5074973;28;20482;-69
2023/02/10 02:45:11;;;;;;;41.25;23.55;;;5.80;99.90;;;6.08;84.09;103423.19;5073608;28;20139;-69
2023/02/10 02:48:18;;;;;;;44.25;24.70;;;5.80;99.90;;;6.14;84.04;103431.41;5075135;28;20052;-70
2023/02/10 02:50:58;;;;;;;43.90;24.58;;;5.90;99.90;;;5.80;83.89;103371.66;5074579;28;20044;-70
2023/02/10 02:53:36;;;;;;;45.17;24.90;;;5.90;99.90;;;5.65;83.92;103358.59;5074542;28;20049;-70
2023/02/10 02:56:19;;;;;;;37.53;24.42;;;5.90;99.90;;;6.03;83.73;103439.50;5075009;28;20048;-69
2023/02/10 02:58:57;;;;;;;44.40;24.92;;;5.80;99.90;;;5.98;83.62;103434.00;5074675;28;20436;-70
2023/02/10 03:01:32;;;;;;;45.40;25.67;;;5.80;99.90;;;6.03;83.69;103440.44;5074179;28;20463;-70
2023/02/10 03:04:05;;;;;;;42.78;25.45;;;5.80;99.90;;;5.97;83.06;103437.47;5074844;28;20040;-69
2023/02/10 03:06:34;;;;;;;40.88;24.85;;;5.70;99.90;;;5.88;83.31;103429.09;5073214;28;20094;-70
2023/02/10 03:09:02;;;;;;;41.58;24.55;;;5.70;99.90;;;5.79;83.32;103448.63;5073592;28;20469;-70
2023/02/10 03:11:31;;;;;;;39.08;23.80;;;5.60;99.90;;;5.79;83.60;103449.50;5073980;28;20064;-69
2023/02/10 03:13:59;;;;;;;40.65;25.73;;;5.50;99.90;;;5.93;83.99;103453.88;5074007;28;20045;-69
2023/02/10 03:16:28;;;;;;;41.08;25.33;;;5.60;99.90;;;5.97;84.08;103449.69;5074229;28;20052;-69
2023/02/10 03:18:56;;;;;;;40.13;24.55;;;5.70;99.90;;;5.99;84.14;103438.44;5073856;28;20047;-69
2023/02/10 03:21:26;;;;;;;40.70;23.23;;;5.70;99.90;;;6.07;84.60;103444.13;5072878;28;20045;-69
2023/02/10 03:23:54;;;;;;;42.53;24.60;;;5.80;99.90;;;6.13;84.75;103448.00;5074429;28;20559;-70
2023/02/10 03:26:23;;;;;;;40.47;23.80;;;5.90;99.90;;;6.14;84.82;103441.91;5073811;28;20128;-69
2023/02/10 03:28:51;;;;;;;40.10;24.55;;;5.90;99.90;;;6.16;84.69;103442.91;5079522;28;20086;-69
2023/02/10 03:31:20;;;;;;;38.65;24.65;;;5.90;99.90;;;6.13;84.36;103450.63;5093913;28;20079;-69
2023/02/10 03:33:48;;;;;;;40.72;22.17;;;5.90;99.90;;;6.12;84.48;103456.69;5075934;28;20052;-69
2023/02/10 03:36:17;;;;;;;39.00;23.20;;;5.90;99.90;;;6.13;84.39;103447.09;5075992;28;20097;-69
2023/02/10 03:38:48;;;;;;;40.00;22.00;;;5.90;99.90;;;6.09;84.60;103440.78;5094045;28;20031;-70
2023/02/10 03:41:16;;;;;;;41.65;21.48;;;5.90;99.90;;;6.12;84.64;103446.16;5093781;28;20044;-69
2023/02/10 03:43:44;;;;;;;43.38;24.17;;;5.90;99.90;;;6.05;84.27;103422.13;5093978;28;20076;-69
2023/02/10 03:46:13;;;;;;;37.85;21.63;;;5.90;99.90;;;6.13;83.84;103444.47;5075781;28;20508;-69
2023/02/10 03:48:41;;;;;;;38.85;22.27;;;5.90;99.90;;;6.08;84.03;103446.81;5076036;28;20044;-69
2023/02/10 03:51:10;;;;;;;35.17;21.45;;;5.90;99.90;;;6.01;83.98;103439.44;5093601;28;20069;-70
2023/02/10 03:53:39;;;;;;;41.00;22.98;;;5.90;99.90;;;5.97;84.04;103436.53;5093803;28;20482;-69
2023/02/10 03:56:08;;;;;;;37.20;22.98;;;5.80;99.90;;;5.95;83.84;103441.72;5093565;28;20063;-70
2023/02/10 03:58:37;;;;;;;38.40;23.65;;;5.80;99.90;;;5.86;83.66;103440.31;5093546;28;20093;-70
2023/02/10 04:01:12;;;;;;;40.13;25.03;;;5.70;99.90;;;5.82;83.98;103440.91;5093497;28;20425;-70
2023/02/10 04:03:41;;;;;;;46.13;25.50;;;5.60;99.90;;;5.81;84.20;103447.88;5093649;28;20337;-70
2023/02/10 04:06:10;;;;;;;48.03;27.80;;;5.60;99.90;;;5.79;84.56;103448.63;5093354;28;20036;-70
2023/02/10 04:08:40;;;;;;;45.00;27.85;;;5.60;99.90;;;5.75;84.37;103446.66;5093884;28;20112;-70
2023/02/10 04:11:11;;;;;;;53.03;28.77;;;5.50;99.90;;;5.71;84.80;103450.81;5093824;28;20047;-70
2023/02/10 04:13:40;;;;;;;51.67;30.08;;;5.50;99.90;;;5.69;85.31;103441.06;5093309;28;20421;-69
2023/02/10 04:16:11;;;;;;;50.78;30.05;;;5.50;99.90;;;5.78;85.40;103447.72;5093368;28;20115;-69
2023/02/10 04:18:41;;;;;;;56.38;33.38;;;5.50;99.90;;;5.64;85.95;103421.50;5093494;28;20389;-69
2023/02/10 04:21:12;;;;;;;54.15;32.35;;;5.50;99.90;;;5.85;86.04;103449.91;5074954;28;20052;-70
2023/02/10 04:23:40;;;;;;;60.28;33.83;;;5.60;99.90;;;5.82;85.84;103454.97;5093510;28;20040;-70
2023/02/10 04:26:10;;;;;;;59.50;35.00;;;5.60;99.90;;;5.57;85.62;103420.25;5093147;28;20548;-69
2023/02/10 04:28:38;;;;;;;57.88;35.17;;;5.60;99.90;;;5.76;85.67;103452.00;5092872;28;20032;-68
2023/02/10 04:31:07;;;;;;;61.22;34.83;;;5.50;99.90;;;5.82;85.72;103452.34;5093102;28;20549;-70
2023/02/10 04:33:36;;;;;;;60.55;35.53;;;5.60;99.90;;;5.86;86.29;103459.59;5075193;28;20044;-70
2023/02/10 04:36:05;;;;;;;57.03;34.13;;;5.60;99.90;;;5.86;86.30;103450.81;5093272;28;20458;-69
2023/02/10 04:38:34;;;;;;;64.00;36.03;;;5.60;99.90;;;5.84;86.35;103453.38;5075196;28;20044;-70
2023/02/10 04:41:04;;;;;;;61.05;34.80;;;5.60;99.90;;;5.84;86.52;103441.94;5092997;28;20048;-69
2023/02/10 04:43:35;;;;;;;62.28;36.60;;;5.60;99.90;;;5.77;86.69;103430.16;5093234;28;20059;-69
2023/02/10 04:46:03;;;;;;;58.10;35.65;;;5.60;99.90;;;5.82;86.53;103448.78;5092993;28;20044;-69
2023/02/10 04:48:32;;;;;;;60.20;34.80;;;5.60;99.90;;;5.78;86.45;103442.47;5093109;28;20056;-69
2023/02/10 04:51:01;;;;;;;62.50;35.25;;;5.60;99.90;;;5.71;86.86;103445.53;5092922;28;20046;-69
2023/02/10 04:53:29;;;;;;;61.97;37.00;;;5.60;99.90;;;5.76;86.77;103456.31;5092841;28;20059;-70
2023/02/10 04:55:58;;;;;;;58.30;35.30;;;5.50;99.90;;;5.76;86.61;103454.59;5093087;28;20048;-69
2023/02/10 04:58:26;;;;;;;62.53;35.25;;;5.50;99.90;;;5.78;86.73;103441.56;5092780;28;20044;-69
2023/02/10 05:00:57;;;;;;;56.90;34.08;;;5.50;99.90;;;5.73;86.93;103448.28;5093074;28;20135;-69
2023/02/10 05:03:26;;;;;;;52.42;32.38;;;5.50;99.90;;;5.69;87.30;103452.44;5092774;28;20111;-69
2023/02/10 05:05:54;;;;;;;52.55;32.78;;;5.40;99.90;;;5.72;87.44;103456.97;5092720;28;20122;-70
2023/02/10 05:08:23;;;;;;;52.47;31.30;;;5.40;99.90;;;5.69;87.25;103447.19;5092685;28;20036;-70
2023/02/10 05:10:53;;;;;;;48.97;31.48;;;5.40;99.90;;;5.62;87.15;103437.16;5093010;28;20563;-69
2023/02/10 05:13:21;;;;;;;48.55;31.08;;;5.40;99.90;;;5.61;86.90;103444.97;5074846;28;20532;-70
2023/02/10 05:15:50;;;;;;;46.03;31.77;;;5.30;99.90;;;5.53;86.94;103434.91;5074825;28;20051;-70
2023/02/10 05:18:19;;;;;;;51.33;32.38;;;5.30;99.90;;;5.54;87.25;103433.19;5092960;28;20127;-69
2023/02/10 05:20:48;;;;;;;48.20;31.67;;;5.30;99.90;;;5.53;86.81;103435.75;5092638;28;20551;-70
2023/02/10 05:23:16;;;;;;;46.10;31.85;;;5.20;99.90;;;5.48;87.06;103440.72;5092835;28;20040;-70
2023/02/10 05:25:45;;;;;;;46.15;29.40;;;5.20;99.90;;;5.35;87.23;103432.97;5092788;28;20047;-69
2023/02/10 05:28:14;;;;;;;38.13;26.93;;;5.20;99.90;;;5.36;87.45;103435.66;5092594;28;20521;-70
2023/02/10 05:30:42;;;;;;;42.08;27.30;;;5.20;99.90;;;5.42;87.86;103429.84;5074129;28;20052;-70
2023/02/10 05:33:11;;;;;;;37.88;25.95;;;5.20;99.90;;;5.37;87.71;103420.84;5094122;28;20044;-71
2023/02/10 05:35:41;;;;;;;37.70;25.30;;;5.20;99.90;;;5.45;87.65;103440.56;5096306;28;20485;-72
2023/02/10 05:38:09;;;;;;;40.78;24.80;;;5.20;99.90;;;5.44;87.59;103439.63;5096489;28;20098;-69
2023/02/10 05:40:38;;;;;;;37.63;25.40;;;5.20;99.90;;;5.48;88.12;103438.09;5096396;28;20123;-69
2023/02/10 05:43:08;;;;;;;37.58;25.38;;;5.20;99.90;;;5.39;88.20;103416.56;5095997;28;20410;-70
2023/02/10 05:45:36;;;;;;;38.67;23.77;;;5.20;99.90;;;5.38;88.27;103413.03;5096114;28;20036;-69
2023/02/10 05:48:05;;;;;;;34.58;24.00;;;5.20;99.90;;;5.32;88.93;103409.19;5096418;28;20075;-69
2023/02/10 05:50:33;;;;;;;38.75;23.88;;;5.10;99.90;;;5.26;88.82;103419.31;5096235;28;20067;-69
2023/02/10 05:53:03;;;;;;;44.15;25.55;;;5.10;99.90;;;5.20;88.70;103416.34;5095815;28;20561;-69
2023/02/10 05:55:32;;;;;;;43.25;27.23;;;5.00;99.90;;;5.26;89.24;103421.94;5096421;28;20048;-70
2023/02/10 05:58:00;;;;;;;43.67;26.85;;;5.00;99.90;;;5.29;88.88;103420.41;5095774;28;20504;-69
2023/02/10 06:00:30;;;;;;;46.05;25.90;;;5.10;99.90;;;5.36;89.25;103434.78;5095780;28;20048;-70
2023/02/10 06:02:59;;;;;;;44.28;26.90;;;5.10;99.90;;;5.40;89.00;103431.53;5095574;28;20036;-70
2023/02/10 06:05:27;;;;;;;37.50;25.15;;;5.20;99.90;;;5.40;88.67;103434.16;5095818;28;20473;-69
2023/02/10 06:07:56;;;;;;;36.00;24.65;;;5.20;99.90;;;5.29;89.16;103406.38;5095559;28;20035;-70
2023/02/10 06:10:26;;;;;;;37.35;24.13;;;5.20;99.90;;;5.50;89.06;103439.09;5095736;28;20490;-70
2023/02/10 06:12:54;;;;;;;37.67;23.42;;;5.30;99.90;;;5.40;88.89;103414.03;5096005;28;20048;-70
2023/02/10 06:15:22;;;;;;;36.53;23.70;;;5.30;99.90;;;5.31;88.69;103409.97;5095587;28;20067;-70
2023/02/10 06:17:51;;;;;;;31.80;22.48;;;5.30;99.90;;;5.53;88.52;103449.78;5095655;28;20040;-70
2023/02/10 06:20:19;;;;;;;32.67;21.77;;;5.30;99.90;;;5.53;88.17;103446.25;5077622;28;20079;-70
2023/02/10 06:22:48;;;;;;;31.13;22.90;;;5.30;99.90;;;5.53;88.34;103459.38;5096092;28;20036;-69
2023/02/10 06:25:17;;;;;;;32.10;21.17;;;5.30;99.90;;;5.50;87.70;103460.09;5095856;28;20416;-70
2023/02/10 06:27:47;;;;;;;29.73;22.33;;;5.30;99.90;;;5.37;87.55;103458.47;5095870;28;20472;-71
2023/02/10 06:30:15;;;;;;;33.55;22.23;;;5.20;99.90;;;5.33;87.21;103479.19;5095711;28;20445;-70
2023/02/10 06:32:44;;;;;;;38.00;21.73;;;5.20;99.90;;;5.25;87.59;103478.75;5095280;28;20127;-70
2023/02/10 06:35:12;;;;;;;34.40;22.52;;;5.10;99.90;;;5.14;87.12;103484.19;5095790;28;20428;-70
2023/02/10 06:37:41;;;;;;;33.73;22.37;;;5.10;99.90;;;5.09;87.27;103485.66;5095008;28;20051;-70
2023/02/10 06:40:11;;;;;;;34.53;21.90;;;5.00;99.90;;;5.00;87.70;103490.31;5076756;28;20051;-69
2023/02/10 06:42:40;;;;;;;33.75;23.35;;;5.00;99.90;;;4.97;88.15;103480.56;5095218;28;20145;-70
2023/02/10 06:45:10;;;;;;;33.60;23.30;;;4.90;99.90;;;4.81;88.45;103471.66;5076659;28;20157;-70
2023/02/10 06:47:39;;;;;;;37.13;23.50;;;4.80;99.90;;;4.92;88.75;103478.44;5094853;28;20071;-70
2023/02/10 06:50:08;;;;;;;31.33;23.00;;;4.80;99.90;;;4.90;89.49;103485.31;5094702;28;20044;-70
2023/02/10 06:52:37;;;;;;;37.45;23.25;;;4.80;99.90;;;4.88;89.35;103476.50;5094659;28;20063;-70
2023/02/10 06:55:07;;;;;;;34.03;24.73;;;4.80;99.90;;;4.83;89.83;103477.91;5095075;28;20048;-70
2023/02/10 06:57:37;;;;;;;39.33;24.77;;;4.70;99.90;;;4.58;89.23;103471.19;5094637;28;20062;-70
2023/02/10 07:00:07;;;;;;;35.10;25.35;;;4.60;99.90;;;3.66;90.22;103330.88;5094755;28;20047;-70
2023/02/10 07:02:38;;;;;;;36.37;25.43;;;4.40;99.90;;;4.53;91.35;103474.31;5094741;28;20040;-70
2023/02/10 07:05:11;;;;;;;39.83;24.95;;;4.50;99.90;;;4.62;91.87;103455.63;5094209;28;20044;-70
2023/02/10 07:07:40;;;;;;;39.10;24.60;;;4.50;99.90;;;4.52;92.32;103441.97;5094624;28;20091;-70
2023/02/10 07:10:09;;;;;;;32.53;24.03;;;4.60;99.90;;;4.76;92.35;103463.53;5094390;28;20086;-70
2023/02/10 07:12:38;;;;;;;39.40;24.37;;;4.60;99.90;;;4.83;92.13;103462.19;5094402;28;20044;-70
2023/02/10 07:15:07;;;;;;;35.33;25.00;;;4.60;99.90;;;4.93;91.96;103472.41;5076326;28;20040;-70
2023/02/10 07:17:37;;;;;;;36.90;25.17;;;4.70;99.90;;;4.38;91.23;103363.31;5094205;28;20036;-70
2023/02/10 07:20:06;;;;;;;33.55;24.70;;;4.80;99.90;;;5.05;91.09;103478.41;5094200;28;20101;-71
2023/02/10 07:22:35;;;;;;;37.13;24.33;;;4.90;99.90;;;5.07;90.35;103479.41;5094230;28;20048;-70
2023/02/10 07:25:05;;;;;;;36.23;25.17;;;4.90;99.90;;;5.17;90.02;103490.50;5076125;28;20052;-70
2023/02/10 07:27:33;;;;;;;35.63;26.35;;;5.00;99.90;;;5.23;90.03;103496.13;5076025;28;20444;-70
2023/02/10 07:30:02;;;;;;;35.90;25.60;;;5.00;99.90;;;5.35;90.04;103506.44;5094289;28;20079;-70
2023/02/10 07:32:30;;;;;;;47.55;26.80;;;5.10;99.90;;;5.40;89.90;103505.00;5094154;28;20554;-70
2023/02/10 07:35:00;;;;;;;38.53;25.55;;;5.20;99.90;;;5.48;89.32;103504.63;5094093;28;20131;-69
2023/02/10 07:37:29;;;;;;;37.72;26.55;;;5.20;99.90;;;5.47;89.06;103507.16;5094155;28;20048;-68
2023/02/10 07:39:57;;;;;;;36.30;25.77;;;5.30;99.90;;;5.40;89.06;103495.38;5093999;28;20540;-68
2023/02/10 07:42:25;;;;;;;37.70;25.43;;;5.20;99.90;;;5.38;88.84;103493.50;5093737;28;20040;-68
2023/02/10 07:45:22;;;;;;;42.43;27.10;;;5.20;99.90;;;5.18;88.60;103471.34;5075868;28;20040;-68
2023/02/10 07:47:50;;;;;;;35.53;25.73;;;5.20;99.90;;;5.33;88.48;103497.56;5094139;28;20478;-68
2023/02/10 07:50:20;;;;;;;39.97;27.00;;;5.20;99.90;;;5.38;88.67;103504.00;5093554;28;20609;-68
2023/02/10 07:52:49;;;;;;;38.95;26.20;;;5.20;99.90;;;5.39;88.53;103498.84;5093588;28;20043;-68
2023/02/10 07:55:18;;;;;;;37.13;25.27;;;5.20;99.90;;;5.47;88.36;103501.91;5092929;28;20118;-67
2023/02/10 07:57:46;;;;;;;38.88;25.77;;;5.20;99.90;;;5.52;88.14;103512.69;5093375;28;20042;-68
2023/02/10 08:00:15;;;;;;;35.03;25.05;;;5.30;99.90;;;5.53;88.03;103520.66;5093687;28;20043;-68
2023/02/10 08:02:44;;;;;;;33.90;25.52;;;5.40;99.90;;;5.47;88.00;103510.72;5093653;28;20044;-68
2023/02/10 08:05:12;;;;;;;35.03;25.70;;;5.40;99.90;;;5.62;88.00;103522.88;5093363;28;20036;-68
2023/02/10 08:07:42;;;;;;;39.03;24.85;;;5.50;99.90;;;5.73;87.84;103538.44;5093666;28;20043;-68
2023/02/10 08:10:11;;;;;;;39.00;26.65;;;5.50;99.90;;;5.88;87.89;103531.50;5093275;28;20043;-68
2023/02/10 08:12:39;;;;;;;37.03;26.13;;;5.70;99.90;;;5.95;87.35;103524.88;5093243;28;20071;-70
2023/02/10 08:15:09;;;;;;;40.90;26.52;;;5.70;99.90;;;6.00;86.63;103516.41;5093460;28;20397;-69
2023/02/10 08:17:39;;;;;;;34.03;24.75;;;5.80;99.90;;;6.07;86.32;103525.56;5093224;28;20044;-69
2023/02/10 08:20:09;;;;;;;35.92;25.20;;;5.90;99.90;;;6.09;86.06;103529.19;5093488;28;20482;-70
2023/02/10 08:22:38;;;;;;;34.45;25.67;;;5.90;99.90;;;6.02;85.52;103516.53;5093206;28;20445;-69
2023/02/10 08:25:08;;;;;;;39.05;25.50;;;5.90;99.90;;;6.13;85.42;103524.19;5093149;28;20089;-69
2023/02/10 08:27:37;;;;;;;37.83;25.63;;;5.90;99.90;;;6.35;85.22;103521.00;5093012;28;20051;-70
2023/02/10 08:30:06;;;;;;;38.63;26.95;;;6.10;99.90;;;6.61;85.52;103514.56;5093494;28;20052;-69
2023/02/10 08:32:35;;;;;;;38.97;26.70;;;6.40;99.90;;;7.07;85.77;103522.34;5093026;28;20135;-69
2023/02/10 08:35:03;;;;;;;41.45;27.55;;;6.80;99.90;;;7.36;84.86;103533.47;5093157;28;20561;-70
2023/02/10 08:37:32;;;;;;;34.70;25.23;;;7.20;99.90;;;7.44;82.91;103537.41;5093200;28;20440;-70
2023/02/10 08:40:02;;;;;;;36.03;24.17;;;7.30;99.90;;;7.56;81.46;103543.28;5092963;28;20047;-70
2023/02/10 08:42:32;;;;;;;30.92;22.80;;;7.40;99.90;;;7.71;80.77;103541.44;5092951;28;20044;-69
2023/02/10 08:45:00;;;;;;;33.70;23.20;;;7.60;99.90;;;7.89;79.43;103535.34;5093190;28;20032;-70
2023/02/10 08:47:29;;;;;;;33.00;23.25;;;7.80;99.90;;;7.96;78.28;103526.00;5092911;28;20483;-69
2023/02/10 08:49:57;;;;;;;31.27;23.05;;;7.90;99.90;;;8.15;77.53;103533.97;5092630;28;20461;-70
2023/02/10 08:52:26;;;;;;;32.92;21.85;;;8.00;99.90;;;8.42;77.25;103539.72;5092840;28;20047;-70
2023/02/10 08:54:54;;;;;;;29.63;22.40;;;8.30;99.90;;;8.51;76.40;103527.84;5074986;28;20455;-70
2023/02/10 08:57:23;;;;;;;30.60;21.88;;;8.40;99.90;;;8.75;76.30;103514.88;5093174;28;20070;-71
2023/02/10 08:59:53;;;;;;;32.33;22.23;;;8.70;99.90;;;9.29;75.78;103530.50;5092876;28;20561;-69
2023/02/10 09:02:21;;;;;;;27.75;20.90;;;9.10;99.90;;;9.50;74.34;103542.03;5092752;28;20094;-68
2023/02/10 09:04:50;;;;;;;28.80;21.15;;;9.30;99.90;;;9.45;73.24;103540.91;5092962;28;20470;-70
2023/02/10 09:07:35;;;;;;;26.25;21.30;;;9.40;99.90;;;9.45;72.34;103548.84;5093528;28;20040;-70
2023/02/10 09:10:04;;;;;;;32.17;21.55;;;9.40;99.90;;;9.54;73.00;103540.41;5078737;28;20040;-70
2023/02/10 09:12:32;;;;;;;30.80;21.20;;;9.40;99.90;;;9.74;72.17;103548.34;5078351;28;20048;-70
2023/02/10 09:15:02;;;;;;;28.15;21.02;;;9.60;99.90;;;10.11;72.46;103548.13;5097141;28;20044;-70
2023/02/10 09:17:30;;;;;;;26.23;20.38;;;9.90;99.90;;;10.56;71.83;103551.69;5097140;28;20040;-70
2023/02/10 09:19:59;;;;;;;27.23;21.40;;;10.30;99.90;;;10.89;70.79;103563.56;5096967;28;20036;-70
2023/02/10 09:22:27;;;;;;;28.23;21.33;;;10.70;99.90;;;11.22;69.95;103559.53;5078476;28;20601;-70
2023/02/10 09:24:56;;;;;;;26.25;19.92;;;11.00;99.90;;;11.42;68.57;103569.06;5096548;28;20072;-70
2023/02/10 09:27:24;;;;;;;29.25;20.42;;;11.30;99.90;;;11.64;68.06;103570.72;5078469;28;20044;-69
2023/02/10 09:29:53;;;;;;;31.55;20.02;;;11.50;99.90;;;11.90;67.06;103566.34;5095953;28;20140;-68
2023/02/10 09:32:23;;;;;;;26.60;19.40;;;11.80;99.90;;;12.07;65.91;103567.78;5078286;28;20053;-69
2023/02/10 09:34:51;;;;;;;26.08;19.40;;;11.90;99.90;;;12.07;65.24;103555.44;5078262;28;20512;-71
2023/02/10 09:37:21;;;;;;;27.33;19.35;;;12.00;99.90;;;12.14;64.77;103565.38;5096137;28;20555;-70
2023/02/10 09:39:50;;;;;;;25.45;19.83;;;12.00;99.90;;;12.22;64.28;103570.94;5096043;28;20123;-70
2023/02/10 09:42:28;;;;;;;28.33;18.77;;;12.00;99.90;;;12.28;64.47;103571.13;5095986;28;20150;-70
2023/02/10 09:45:04;;;;;;;23.83;18.35;;;12.10;99.90;;;12.41;63.79;103565.34;5096652;28;20063;-70
2023/02/10 09:47:49;;;;;;;26.00;19.10;;;12.20;99.90;;;12.59;63.56;103573.91;5095912;28;20063;-71
2023/02/10 09:50:35;;;;;;;20.92;18.23;;;12.30;99.90;;;12.69;62.95;103573.31;5095918;28;20059;-71
2023/02/10 09:53:13;;;;;;;26.80;19.02;;;12.50;99.90;;;12.72;62.56;103546.84;5095938;28;20044;-71
2023/02/10 09:55:47;;;;;;;27.67;20.05;;;12.60;99.90;;;12.48;62.04;103503.66;5095888;28;20434;-72
2023/02/10 09:58:25;;;;;;;25.48;18.95;;;12.70;99.90;;;12.78;61.49;103562.06;5095813;28;20043;-72
2023/02/10 10:00:58;;;;;;;25.80;19.20;;;12.60;99.90;;;12.74;61.21;103560.19;5095767;28;20070;-72
2023/02/10 10:03:40;;;;;;;24.98;18.52;;;12.50;99.90;;;12.90;62.06;103567.75;5095953;28;20128;-72
2023/02/10 10:06:19;;;;;;;27.00;18.77;;;12.60;99.90;;;12.66;61.14;103549.31;5095535;28;20070;-72
2023/02/10 10:08:58;;;;;;;25.65;18.58;;;12.60;99.90;;;12.77;61.63;103571.81;5095534;28;20039;-72
2023/02/10 10:11:37;;;;;;;28.95;19.58;;;12.60;99.90;;;12.88;61.44;103574.75;5095560;28;20101;-73
2023/02/10 10:14:17;;;;;;;25.63;18.40;;;12.60;99.90;;;12.96;61.73;103575.91;5095541;28;20044;-72
2023/02/10 10:17:21;;;;;;;29.52;19.95;;;12.70;99.90;;;13.11;61.02;103563.06;5077674;28;20401;-72
2023/02/10 10:20:07;;;;;;;27.80;20.02;;;12.90;99.90;;;13.16;61.20;103566.78;5092981;28;20429;-72
2023/02/10 10:22:51;;;;;;;23.73;18.08;;;12.90;99.90;;;13.09;60.30;103567.44;5095709;28;20047;-72
2023/02/10 10:25:58;;;;;;;23.45;18.00;;;12.90;99.90;;;13.13;60.55;103550.72;5095153;28;20051;-71
2023/02/10 10:28:43;;;;;;;23.80;17.42;;;12.90;99.90;;;13.14;60.41;103542.78;5077419;28;20568;-71